Time;durP1;ratioP1;P1;durP2;ratioP2;P2;SDS_P1;SDS_P2;PMS_P1;PMS_P2;Temp;Humidity;BMP_temperature;BMP_pressure;BME280_temperature;BME280_humidity;BME280_pressure;Samples;Min_cycle;Max_cycle;Signal;HPM_P1;HPM_P2
2023/09/04 00:01:39;;;;;;;2.72;2.35;;;18.10;79.90;;;;;;5030954;28;21083;-64
2023/09/04 00:04:06;;;;;;;2.47;2.30;;;18.10;80.00;;;;;;5025938;28;20360;-63
2023/09/04 00:06:32;;;;;;;2.00;1.80;;;18.00;80.10;;;;;;5030706;28;20072;-62
2023/09/04 00:08:59;;;;;;;3.97;1.80;;;18.00;80.20;;;;;;5029506;28;20144;-63
2023/09/04 00:11:27;;;;;;;2.38;2.17;;;18.00;80.40;;;;;;5027868;28;21480;-63
2023/09/04 00:13:53;;;;;;;2.30;2.20;;;18.00;80.50;;;;;;5035454;28;20033;-63
2023/09/04 00:16:19;;;;;;;2.65;2.00;;;18.00;80.30;;;;;;5028509;28;20061;-64
2023/09/04 00:18:44;;;;;;;2.90;2.28;;;18.00;80.30;;;;;;5032573;28;20049;-63
2023/09/04 00:21:10;;;;;;;2.40;2.22;;;17.90;80.40;;;;;;5030175;28;20041;-63
2023/09/04 00:23:35;;;;;;;2.92;2.60;;;17.90;80.60;;;;;;5032419;28;20120;-64
2023/09/04 00:26:01;;;;;;;2.63;2.45;;;17.90;80.90;;;;;;5028643;28;20448;-63
2023/09/04 00:28:27;;;;;;;2.80;2.60;;;17.90;81.20;;;;;;5030454;28;20321;-63
2023/09/04 00:30:53;;;;;;;4.15;2.85;;;18.00;81.40;;;;;;5033201;28;20149;-63
2023/09/04 00:33:18;;;;;;;2.60;2.40;;;17.90;81.50;;;;;;5032504;28;20061;-63
2023/09/04 00:35:44;;;;;;;2.92;2.50;;;18.00;81.90;;;;;;5034412;28;20118;-63
2023/09/04 00:38:09;;;;;;;2.78;2.58;;;18.00;81.90;;;;;;5030793;28;20037;-63
2023/09/04 00:40:35;;;;;;;2.67;2.47;;;18.00;81.90;;;;;;5030314;28;20136;-63
2023/09/04 00:43:01;;;;;;;2.83;2.60;;;18.00;81.90;;;;;;5034629;28;20033;-63
2023/09/04 00:45:27;;;;;;;2.75;2.53;;;18.10;81.90;;;;;;5032385;28;20045;-63
2023/09/04 00:47:53;;;;;;;3.13;2.47;;;18.00;81.90;;;;;;5029316;28;20510;-63
2023/09/04 00:50:22;;;;;;;3.42;2.70;;;18.10;81.90;;;;;;5027919;28;20481;-63
2023/09/04 00:52:50;;;;;;;4.07;2.60;;;18.10;82.00;;;;;;5031222;28;20512;-63
2023/09/04 00:55:16;;;;;;;3.75;2.75;;;18.10;81.90;;;;;;5031495;28;20087;-62
2023/09/04 00:57:43;;;;;;;3.92;2.80;;;18.10;81.90;;;;;;5031238;28;20127;-63
2023/09/04 01:00:12;;;;;;;2.60;2.40;;;18.20;81.80;;;;;;5027495;28;20641;-63
2023/09/04 01:02:39;;;;;;;2.83;2.63;;;18.20;81.70;;;;;;5021069;28;20119;-63
2023/09/04 01:05:05;;;;;;;3.97;2.50;;;18.20;81.70;;;;;;5026816;28;20034;-63
2023/09/04 01:07:31;;;;;;;2.83;2.63;;;18.20;81.70;;;;;;5027038;28;20056;-63
2023/09/04 01:09:57;;;;;;;2.85;2.65;;;18.30;81.70;;;;;;5027030;28;20049;-63
2023/09/04 01:12:33;;;;;;;3.25;2.55;;;18.30;81.70;;;;;;5022622;28;20053;-63
2023/09/04 01:15:01;;;;;;;2.70;2.50;;;18.30;81.60;;;;;;5029803;28;20045;-63
2023/09/04 01:17:28;;;;;;;2.80;2.60;;;18.20;81.20;;;;;;5032284;28;20040;-63
2023/09/04 01:19:53;;;;;;;2.90;2.70;;;18.20;81.20;;;;;;5028674;28;20060;-63
2023/09/04 01:22:19;;;;;;;2.90;2.47;;;18.30;81.30;;;;;;5026942;28;20587;-63
2023/09/04 01:24:46;;;;;;;3.72;2.72;;;18.20;81.20;;;;;;5030886;28;20050;-63
2023/09/04 01:27:27;;;;;;;2.95;2.42;;;18.20;81.20;;;;;;5030660;28;20068;-63
2023/09/04 01:30:09;;;;;;;3.22;3.00;;;18.30;81.60;;;;;;5026059;28;20032;-64
2023/09/04 01:32:46;;;;;;;3.00;2.67;;;18.30;81.70;;;;;;5033411;28;20048;-63
2023/09/04 01:35:13;;;;;;;3.10;2.90;;;18.30;81.40;;;;;;5030171;28;20076;-63
2023/09/04 01:37:40;;;;;;;3.90;2.60;;;18.30;81.10;;;;;;5031914;28;20036;-63
2023/09/04 01:40:07;;;;;;;2.72;2.53;;;18.20;81.00;;;;;;5029991;28;20064;-63
2023/09/04 01:42:34;;;;;;;3.22;2.92;;;18.20;80.90;;;;;;5031441;28;20041;-63
2023/09/04 01:45:02;;;;;;;3.80;3.05;;;18.20;81.00;;;;;;5028857;28;20555;-63
2023/09/04 01:47:30;;;;;;;3.28;2.90;;;18.20;81.00;;;;;;5029740;28;20037;-63
2023/09/04 01:49:56;;;;;;;3.40;3.17;;;18.20;81.00;;;;;;5028721;28;20033;-63
2023/09/04 01:52:22;;;;;;;4.07;2.80;;;18.20;81.00;;;;;;5026921;28;20067;-63
2023/09/04 01:54:47;;;;;;;2.60;2.40;;;18.20;81.00;;;;;;5023865;28;20505;-63
2023/09/04 01:57:13;;;;;;;3.58;3.28;;;18.20;81.10;;;;;;5029569;28;20087;-63
2023/09/04 01:59:38;;;;;;;4.55;3.08;;;18.20;81.00;;;;;;5029559;28;20072;-63
2023/09/04 02:02:04;;;;;;;3.03;2.80;;;18.10;81.10;;;;;;5026340;28;20037;-63
2023/09/04 02:04:31;;;;;;;3.97;3.00;;;18.10;81.20;;;;;;5027291;28;20042;-63
2023/09/04 02:06:58;;;;;;;3.88;3.58;;;18.10;81.10;;;;;;5025312;28;20052;-63
2023/09/04 02:09:24;;;;;;;3.42;3.20;;;18.20;81.30;;;;;;5027718;28;20026;-64
2023/09/04 02:11:50;;;;;;;3.70;3.33;;;18.10;81.30;;;;;;5027232;28;20040;-63
2023/09/04 02:14:15;;;;;;;3.90;3.50;;;18.10;81.20;;;;;;5030334;28;20032;-63
2023/09/04 02:16:41;;;;;;;3.50;3.20;;;18.10;81.20;;;;;;5029227;28;20041;-63
2023/09/04 02:19:06;;;;;;;3.42;3.13;;;18.10;81.30;;;;;;5029682;28;20041;-63
2023/09/04 02:21:32;;;;;;;5.00;3.58;;;18.10;81.30;;;;;;5031104;28;20758;-63
2023/09/04 02:23:58;;;;;;;3.95;3.00;;;18.10;81.30;;;;;;5032529;28;20025;-63
2023/09/04 02:26:24;;;;;;;3.40;3.17;;;18.10;81.00;;;;;;5033408;28;20030;-63
2023/09/04 02:28:49;;;;;;;3.75;3.45;;;18.00;80.80;;;;;;5030292;28;20029;-63
2023/09/04 02:31:15;;;;;;;3.63;3.13;;;18.00;80.80;;;;;;5033554;28;20505;-63
2023/09/04 02:33:40;;;;;;;3.50;3.20;;;18.00;80.90;;;;;;5034029;28;20095;-63
2023/09/04 02:36:06;;;;;;;4.32;3.33;;;17.90;80.80;;;;;;5032086;28;20029;-64
2023/09/04 02:38:31;;;;;;;3.80;3.50;;;17.90;80.90;;;;;;5027973;28;20025;-63
2023/09/04 02:40:57;;;;;;;3.95;3.30;;;17.90;81.00;;;;;;5031547;28;20687;-63
2023/09/04 02:43:23;;;;;;;4.75;3.15;;;17.90;81.00;;;;;;5029407;28;20021;-63
2023/09/04 02:45:48;;;;;;;3.90;3.60;;;17.80;81.00;;;;;;5033670;28;20033;-63
2023/09/04 02:48:15;;;;;;;3.88;3.30;;;17.70;81.00;;;;;;5032065;28;20041;-63
2023/09/04 02:50:40;;;;;;;3.78;3.38;;;17.70;81.20;;;;;;5031071;28;20040;-63
2023/09/04 02:53:06;;;;;;;4.20;3.20;;;17.70;81.50;;;;;;5033030;28;20041;-63
2023/09/04 02:55:32;;;;;;;3.60;3.30;;;17.60;81.50;;;;;;5031937;28;20045;-63
2023/09/04 02:57:58;;;;;;;3.92;3.63;;;17.60;81.60;;;;;;5025381;28;20567;-63
2023/09/04 03:00:23;;;;;;;3.80;3.50;;;17.60;81.70;;;;;;5031905;28;20166;-63
2023/09/04 03:02:50;;;;;;;3.80;3.50;;;17.60;81.80;;;;;;5028754;28;20519;-63
2023/09/04 03:05:16;;;;;;;4.00;3.60;;;17.60;81.90;;;;;;5034286;28;20186;-63
2023/09/04 03:07:41;;;;;;;4.00;3.60;;;17.60;82.00;;;;;;5031167;28;20044;-63
2023/09/04 03:10:07;;;;;;;4.13;3.70;;;17.60;82.00;;;;;;5027981;28;20045;-63
2023/09/04 03:12:33;;;;;;;4.18;3.78;;;17.60;82.00;;;;;;5027833;28;20028;-63
2023/09/04 03:15:01;;;;;;;3.72;3.42;;;17.60;82.00;;;;;;5027587;28;20047;-63
2023/09/04 03:17:28;;;;;;;3.78;3.20;;;17.60;82.00;;;;;;5033130;28;20116;-63
2023/09/04 03:19:56;;;;;;;4.20;3.80;;;17.60;81.90;;;;;;5032628;28;20043;-63
2023/09/04 03:22:22;;;;;;;3.60;3.30;;;17.60;81.80;;;;;;5033193;28;20082;-63
2023/09/04 03:24:48;;;;;;;3.88;3.50;;;17.60;81.70;;;;;;5030021;28;20429;-63
2023/09/04 03:27:14;;;;;;;3.72;3.42;;;17.60;81.70;;;;;;5026163;28;20228;-64
2023/09/04 03:29:39;;;;;;;4.63;3.33;;;17.60;81.70;;;;;;5031913;28;20033;-63
2023/09/04 03:32:06;;;;;;;4.43;3.20;;;17.60;81.60;;;;;;5025485;28;20496;-63
2023/09/04 03:34:31;;;;;;;4.57;3.50;;;17.60;81.70;;;;;;5032042;28;20041;-63
2023/09/04 03:36:57;;;;;;;3.63;3.28;;;17.60;81.70;;;;;;5027857;28;20037;-62
2023/09/04 03:39:23;;;;;;;3.58;3.28;;;17.50;81.60;;;;;;5025666;28;20451;-63
2023/09/04 03:41:48;;;;;;;3.85;3.55;;;17.50;81.70;;;;;;5026955;28;20049;-63
2023/09/04 03:44:14;;;;;;;4.30;3.90;;;17.50;81.70;;;;;;5027874;28;20505;-63
2023/09/04 03:46:40;;;;;;;4.03;3.15;;;17.50;81.70;;;;;;5032609;28;20055;-63
2023/09/04 03:49:06;;;;;;;3.90;3.53;;;17.50;81.70;;;;;;5031453;28;20053;-63
2023/09/04 03:51:32;;;;;;;3.83;3.53;;;17.50;81.80;;;;;;5028443;28;20523;-63
2023/09/04 03:54:02;;;;;;;3.70;3.40;;;17.50;81.80;;;;;;5030046;28;20589;-64
2023/09/04 03:56:29;;;;;;;6.07;3.72;;;17.50;81.90;;;;;;5031653;28;20195;-63
2023/09/04 03:58:58;;;;;;;3.78;3.47;;;17.50;81.80;;;;;;5026063;28;20040;-63
2023/09/04 04:01:24;;;;;;;3.53;3.22;;;17.40;81.80;;;;;;5026639;28;20460;-63
2023/09/04 04:03:53;;;;;;;4.07;3.75;;;17.40;81.70;;;;;;5028106;28;20109;-63
2023/09/04 04:06:21;;;;;;;3.67;3.35;;;17.40;81.90;;;;;;5030429;28;20033;-62
2023/09/04 04:08:46;;;;;;;4.55;3.40;;;17.30;81.80;;;;;;5031248;28;20530;-63
2023/09/04 04:11:12;;;;;;;6.35;3.58;;;17.30;81.90;;;;;;5023230;28;20021;-63
2023/09/04 04:13:38;;;;;;;4.20;3.90;;;17.30;81.90;;;;;;5031878;28;20139;-63
2023/09/04 04:16:04;;;;;;;4.30;3.90;;;17.30;82.00;;;;;;5027049;28;20223;-63
2023/09/04 04:18:30;;;;;;;4.45;4.05;;;17.20;82.00;;;;;;5027954;28;20036;-64
2023/09/04 04:20:57;;;;;;;3.90;3.60;;;17.20;82.10;;;;;;5031704;28;20040;-63
2023/09/04 04:23:22;;;;;;;4.35;3.92;;;17.20;82.20;;;;;;5028342;28;20030;-63
2023/09/04 04:25:49;;;;;;;6.30;3.92;;;17.10;82.40;;;;;;5024807;28;20053;-63
2023/09/04 04:28:22;;;;;;;4.43;4.03;;;17.10;82.40;;;;;;5030243;28;20064;-63
2023/09/04 04:30:48;;;;;;;4.22;3.83;;;17.10;82.90;;;;;;5030636;28;20500;-63
2023/09/04 04:33:13;;;;;;;4.88;3.92;;;17.10;82.70;;;;;;5023678;28;20154;-63
2023/09/04 04:35:39;;;;;;;6.30;4.30;;;17.00;82.70;;;;;;5022509;28;20527;-64
2023/09/04 04:38:08;;;;;;;5.35;4.20;;;17.00;82.80;;;;;;5026862;28;20397;-63
2023/09/04 04:40:36;;;;;;;4.72;4.00;;;17.00;82.90;;;;;;5031536;28;20072;-63
2023/09/04 04:43:03;;;;;;;4.55;3.95;;;17.00;83.20;;;;;;5033676;28;20091;-62
2023/09/04 04:45:29;;;;;;;5.63;4.40;;;17.00;83.10;;;;;;5033948;28;20661;-62
2023/09/04 04:47:54;;;;;;;4.13;3.72;;;17.00;83.20;;;;;;5034553;28;20041;-62
2023/09/04 04:50:21;;;;;;;4.45;4.05;;;16.90;83.20;;;;;;5034339;28;20252;-63
2023/09/04 04:52:46;;;;;;;4.13;3.72;;;16.90;83.30;;;;;;5033209;28;20094;-63
2023/09/04 04:55:12;;;;;;;4.82;4.30;;;16.90;83.40;;;;;;5034137;28;20041;-62
2023/09/04 04:57:38;;;;;;;4.90;4.40;;;16.90;83.50;;;;;;5031772;28;20044;-61
2023/09/04 05:00:07;;;;;;;5.03;4.30;;;16.90;83.60;;;;;;5035115;28;20445;-62
2023/09/04 05:02:36;;;;;;;5.00;4.50;;;16.80;83.70;;;;;;5031416;28;20079;-62
2023/09/04 05:05:02;;;;;;;5.32;4.00;;;16.80;83.90;;;;;;5034410;28;20409;-62
2023/09/04 05:07:29;;;;;;;4.55;4.15;;;16.80;83.80;;;;;;5033326;28;20041;-62
2023/09/04 05:09:55;;;;;;;4.07;3.70;;;16.80;84.70;;;;;;5031616;28;20030;-62
2023/09/04 05:12:21;;;;;;;4.57;4.18;;;16.80;84.00;;;;;;5032760;28;20041;-62
2023/09/04 05:14:47;;;;;;;5.28;4.70;;;16.80;84.00;;;;;;5032096;28;20037;-63
2023/09/04 05:17:12;;;;;;;4.55;4.15;;;16.80;84.10;;;;;;5034839;28;20025;-62
2023/09/04 05:19:38;;;;;;;4.82;4.15;;;16.80;84.10;;;;;;5035034;28;20049;-62
2023/09/04 05:22:04;;;;;;;4.78;4.28;;;16.80;85.10;;;;;;5033862;28;20045;-63
2023/09/04 05:24:30;;;;;;;5.55;4.90;;;16.80;84.30;;;;;;5033230;28;20119;-63
2023/09/04 05:26:56;;;;;;;5.22;4.72;;;16.80;84.40;;;;;;5031735;28;20500;-63
2023/09/04 05:29:21;;;;;;;4.90;4.50;;;16.80;84.60;;;;;;5032437;28;20029;-63
2023/09/04 05:31:51;;;;;;;5.43;4.93;;;16.80;84.60;;;;;;5030993;28;20412;-62
2023/09/04 05:34:17;;;;;;;5.85;4.72;;;16.80;85.10;;;;;;5033626;28;20538;-63
2023/09/04 05:36:42;;;;;;;6.00;5.10;;;16.80;85.00;;;;;;5033394;28;20033;-62
2023/09/04 05:39:09;;;;;;;5.45;4.95;;;16.70;85.10;;;;;;5032373;28;20532;-63
2023/09/04 05:41:38;;;;;;;5.13;4.63;;;16.70;85.20;;;;;;5031119;28;20583;-62
2023/09/04 05:44:04;;;;;;;6.60;5.38;;;16.70;85.20;;;;;;5034657;28;20033;-62
2023/09/04 05:46:31;;;;;;;5.03;4.63;;;16.70;85.40;;;;;;5033620;28;20029;-62
2023/09/04 05:48:56;;;;;;;5.97;5.15;;;16.70;85.60;;;;;;5033974;28;20044;-62
2023/09/04 05:51:22;;;;;;;6.70;4.80;;;16.80;85.80;;;;;;5037580;28;20409;-63
2023/09/04 05:53:48;;;;;;;5.32;4.78;;;16.70;85.90;;;;;;5037345;28;20107;-62
2023/09/04 05:56:14;;;;;;;6.13;5.28;;;16.70;85.90;;;;;;5035926;28;20056;-62
2023/09/04 05:58:48;;;;;;;5.95;4.93;;;16.80;86.00;;;;;;5037857;28;20115;-62
2023/09/04 06:01:15;;;;;;;6.32;4.95;;;16.80;86.30;;;;;;5036910;28;20114;-62
2023/09/04 06:03:42;;;;;;;6.35;4.93;;;16.90;86.20;;;;;;5037691;28;20501;-62
2023/09/04 06:06:07;;;;;;;6.15;5.55;;;16.90;86.20;;;;;;5037498;28;20041;-63
2023/09/04 06:08:34;;;;;;;5.47;4.97;;;16.90;86.40;;;;;;5037182;28;20060;-62
2023/09/04 06:11:00;;;;;;;6.22;5.15;;;16.90;86.40;;;;;;5033794;28;20032;-62
2023/09/04 06:13:26;;;;;;;5.93;5.10;;;16.90;86.50;;;;;;5039194;28;20036;-62
2023/09/04 06:15:52;;;;;;;7.00;4.97;;;17.00;86.60;;;;;;5039909;28;20404;-62
2023/09/04 06:18:21;;;;;;;5.90;5.30;;;17.00;86.70;;;;;;5034464;28;20093;-63
2023/09/04 06:20:47;;;;;;;6.07;5.28;;;17.00;86.80;;;;;;5037736;28;20122;-62
2023/09/04 06:23:13;;;;;;;5.85;5.28;;;17.00;86.90;;;;;;5036642;28;20041;-62
2023/09/04 06:25:41;;;;;;;5.47;4.97;;;17.10;86.90;;;;;;5037610;28;20033;-60
2023/09/04 06:28:07;;;;;;;7.05;5.22;;;17.10;87.10;;;;;;5036039;28;20358;-62
2023/09/04 06:30:34;;;;;;;6.68;5.10;;;17.20;87.30;;;;;;5036599;28;20291;-60
2023/09/04 06:32:59;;;;;;;5.43;4.90;;;17.20;87.20;;;;;;5036799;28;20539;-61
2023/09/04 06:35:25;;;;;;;5.45;4.95;;;17.30;87.40;;;;;;5035628;28;20345;-62
2023/09/04 06:37:51;;;;;;;6.05;4.82;;;17.30;87.40;;;;;;5036223;28;20041;-61
2023/09/04 06:40:17;;;;;;;5.55;5.05;;;17.30;87.40;;;;;;5038920;28;20071;-62
2023/09/04 06:42:42;;;;;;;5.88;5.32;;;17.40;87.40;;;;;;5035960;28;20075;-62
2023/09/04 06:45:08;;;;;;;5.20;4.70;;;17.40;87.40;;;;;;5035977;28;20041;-62
2023/09/04 06:47:34;;;;;;;5.63;5.13;;;17.50;87.20;;;;;;5037727;28;20041;-62
2023/09/04 06:50:01;;;;;;;5.93;5.38;;;17.50;87.30;;;;;;5036595;28;20068;-63
2023/09/04 06:52:26;;;;;;;5.97;5.07;;;17.60;87.20;;;;;;5036163;28;20415;-62
2023/09/04 06:54:52;;;;;;;5.78;5.18;;;17.60;87.00;;;;;;5034250;28;20029;-62
2023/09/04 06:57:18;;;;;;;5.80;5.30;;;17.70;86.90;;;;;;5036332;28;20033;-62
2023/09/04 06:59:43;;;;;;;5.65;5.05;;;17.70;86.90;;;;;;5036804;28;20067;-62
2023/09/04 07:02:09;;;;;;;4.90;4.50;;;17.70;86.70;;;;;;5035857;28;20091;-62
2023/09/04 07:04:35;;;;;;;6.15;5.25;;;17.80;86.80;;;;;;5033792;28;20048;-63
2023/09/04 07:07:00;;;;;;;5.90;5.07;;;17.80;86.90;;;;;;5036656;28;20400;-62
2023/09/04 07:09:26;;;;;;;5.18;4.68;;;17.90;86.90;;;;;;5034553;28;20083;-62
2023/09/04 07:11:52;;;;;;;5.43;4.93;;;17.90;86.80;;;;;;5034073;28;20037;-62
2023/09/04 07:14:17;;;;;;;5.53;5.03;;;18.00;86.80;;;;;;5035023;28;20033;-63
2023/09/04 07:16:43;;;;;;;6.15;4.55;;;18.00;86.90;;;;;;5036449;28;20047;-62
2023/09/04 07:19:08;;;;;;;6.82;4.90;;;18.10;87.10;;;;;;5037487;28;20083;-63
2023/09/04 07:21:36;;;;;;;5.03;4.55;;;18.10;87.10;;;;;;5037081;28;20412;-62
2023/09/04 07:24:03;;;;;;;4.70;4.30;;;18.20;87.10;;;;;;5033013;28;20052;-62
2023/09/04 07:26:29;;;;;;;4.93;4.13;;;18.20;87.10;;;;;;5034900;28;20029;-62
2023/09/04 07:28:55;;;;;;;4.20;3.90;;;18.40;87.10;;;;;;5034525;28;20359;-63
2023/09/04 07:31:20;;;;;;;4.60;4.15;;;18.50;86.90;;;;;;5035047;28;20435;-62
2023/09/04 07:33:47;;;;;;;4.65;4.25;;;18.50;86.70;;;;;;5036237;28;20091;-62
2023/09/04 07:36:13;;;;;;;4.55;4.13;;;18.60;86.90;;;;;;5036804;28;20504;-61
2023/09/04 07:38:39;;;;;;;4.50;4.10;;;18.70;86.80;;;;;;5033009;28;20032;-62
2023/09/04 07:41:05;;;;;;;4.85;4.40;;;18.70;86.70;;;;;;5033135;28;20061;-62
2023/09/04 07:43:31;;;;;;;4.03;3.72;;;18.80;86.40;;;;;;5034421;28;20112;-62
2023/09/04 07:45:57;;;;;;;4.30;3.90;;;18.90;86.20;;;;;;5035755;28;20042;-62
2023/09/04 07:48:23;;;;;;;4.32;3.83;;;19.00;85.90;;;;;;5034623;28;20029;-65
2023/09/04 07:50:52;;;;;;;4.57;4.15;;;19.10;85.80;;;;;;5034467;28;20034;-62
2023/09/04 07:53:17;;;;;;;5.05;4.05;;;19.20;85.70;;;;;;5034650;28;20566;-61
2023/09/04 07:55:43;;;;;;;4.78;4.15;;;19.30;85.50;;;;;;5034078;28;20040;-62
2023/09/04 07:58:09;;;;;;;4.45;4.05;;;19.40;85.50;;;;;;5033360;28;20112;-62
2023/09/04 08:00:36;;;;;;;5.55;4.20;;;19.50;85.30;;;;;;5034317;28;20400;-63
2023/09/04 08:03:02;;;;;;;3.72;3.42;;;19.60;85.00;;;;;;5033752;28;20042;-62
2023/09/04 08:05:28;;;;;;;3.58;3.28;;;19.60;85.00;;;;;;5036199;28;20029;-62
2023/09/04 08:07:53;;;;;;;3.95;3.50;;;19.70;84.70;;;;;;5035786;28;20404;-62
2023/09/04 08:10:19;;;;;;;4.40;3.42;;;19.80;84.60;;;;;;5036044;28;20044;-62
2023/09/04 08:12:47;;;;;;;3.65;3.35;;;19.90;84.40;;;;;;5032917;28;20041;-62
2023/09/04 08:15:12;;;;;;;5.22;3.58;;;20.00;84.30;;;;;;5037208;28;20238;-62
2023/09/04 08:17:40;;;;;;;3.92;3.53;;;20.10;84.00;;;;;;5036486;28;20037;-63
2023/09/04 08:20:07;;;;;;;3.75;3.45;;;20.20;83.80;;;;;;5036244;28;20052;-62
2023/09/04 08:22:33;;;;;;;3.13;2.92;;;20.30;83.50;;;;;;5034130;28;20040;-63
2023/09/04 08:24:59;;;;;;;3.30;3.10;;;20.30;83.10;;;;;;5035669;28;20045;-62
2023/09/04 08:27:24;;;;;;;3.20;3.00;;;20.40;82.90;;;;;;5035209;28;20040;-62
2023/09/04 08:29:51;;;;;;;3.40;3.10;;;20.50;82.60;;;;;;5034908;28;20041;-62
2023/09/04 08:32:16;;;;;;;3.10;2.83;;;20.60;82.30;;;;;;5036420;28;20598;-61
2023/09/04 08:34:42;;;;;;;3.83;2.92;;;20.70;82.10;;;;;;5033839;28;20037;-62
2023/09/04 08:37:07;;;;;;;3.85;3.45;;;20.80;82.10;;;;;;5038271;28;20047;-63
2023/09/04 08:39:33;;;;;;;4.82;3.05;;;20.90;82.00;;;;;;5038162;28;20033;-63
2023/09/04 08:41:59;;;;;;;3.03;2.83;;;21.00;81.60;;;;;;5037891;28;20068;-63
2023/09/04 08:44:25;;;;;;;3.90;2.90;;;21.00;81.00;;;;;;5033445;28;20033;-62
2023/09/04 08:46:54;;;;;;;3.10;2.90;;;21.20;80.90;;;;;;5035124;28;20048;-62
2023/09/04 08:49:20;;;;;;;2.97;2.78;;;21.20;80.50;;;;;;5035737;28;20558;-62
2023/09/04 08:51:46;;;;;;;3.33;3.03;;;21.30;80.20;;;;;;5034558;28;20049;-63
2023/09/04 08:54:12;;;;;;;3.20;2.90;;;21.40;79.90;;;;;;5034033;28;20108;-63
2023/09/04 08:56:38;;;;;;;2.80;2.60;;;21.50;79.80;;;;;;5034064;28;20072;-63
2023/09/04 08:59:04;;;;;;;2.63;2.42;;;21.50;79.60;;;;;;5031996;28;20079;-62
2023/09/04 09:01:33;;;;;;;2.97;2.78;;;21.60;79.40;;;;;;5034128;28;20440;-62
2023/09/04 09:04:00;;;;;;;2.80;2.63;;;21.70;79.00;;;;;;5035624;28;20037;-63
2023/09/04 09:06:26;;;;;;;2.92;2.70;;;21.80;78.20;;;;;;5034357;28;20055;-62
2023/09/04 09:08:56;;;;;;;2.70;2.50;;;21.90;78.00;;;;;;5034406;28;20517;-62
2023/09/04 09:11:22;;;;;;;2.58;2.38;;;22.00;77.30;;;;;;5033161;28;20033;-62
2023/09/04 09:13:48;;;;;;;2.67;2.47;;;22.00;76.90;;;;;;5033966;28;20045;-63
2023/09/04 09:16:18;;;;;;;2.53;2.42;;;22.10;76.60;;;;;;5033037;28;20598;-63
2023/09/04 09:18:44;;;;;;;4.75;2.50;;;22.20;75.70;;;;;;5034045;28;20632;-63
2023/09/04 09:21:28;;;;;;;2.90;2.67;;;22.30;75.80;;;;;;5034808;28;20108;-63
2023/09/04 09:24:09;;;;;;;2.55;2.35;;;22.30;74.70;;;;;;5034139;28;20033;-63
2023/09/04 09:26:36;;;;;;;2.28;2.05;;;22.40;74.30;;;;;;5033003;28;20033;-63
2023/09/04 09:29:03;;;;;;;2.60;2.40;;;22.50;74.60;;;;;;5035076;28;20037;-63
2023/09/04 09:31:29;;;;;;;3.60;2.20;;;22.50;74.00;;;;;;5034366;28;20399;-63
2023/09/04 09:33:55;;;;;;;2.13;2.03;;;22.60;73.20;;;;;;5033899;28;20033;-62
2023/09/04 09:36:21;;;;;;;2.10;2.00;;;22.70;73.00;;;;;;5035241;28;20252;-63
2023/09/04 09:38:47;;;;;;;4.38;2.10;;;22.80;72.80;;;;;;5032351;28;20153;-63
2023/09/04 09:41:13;;;;;;;2.25;2.05;;;22.80;72.80;;;;;;5046870;28;20042;-63
2023/09/04 09:43:40;;;;;;;2.75;2.25;;;22.90;72.70;;;;;;5034239;28;20413;-63
2023/09/04 09:46:09;;;;;;;2.17;2.00;;;23.00;72.60;;;;;;5035574;28;20034;-61
2023/09/04 09:48:36;;;;;;;2.53;2.00;;;23.10;72.10;;;;;;5033007;28;20046;-63
2023/09/04 09:51:06;;;;;;;2.40;2.10;;;23.20;71.30;;;;;;5034424;28;20044;-63
2023/09/04 09:53:51;;;;;;;2.00;1.90;;;23.20;70.60;;;;;;5034205;28;20570;-63
2023/09/04 09:56:18;;;;;;;2.10;2.00;;;23.40;70.00;;;;;;5035566;28;20052;-63
2023/09/04 09:58:49;;;;;;;2.67;1.92;;;23.40;69.90;;;;;;5031843;28;20064;-62
2023/09/04 10:01:16;;;;;;;2.20;1.88;;;23.50;69.50;;;;;;5035890;28;20034;-63
2023/09/04 10:03:44;;;;;;;2.58;2.10;;;23.60;69.30;;;;;;5032176;28;20208;-63
2023/09/04 10:06:14;;;;;;;1.80;1.70;;;23.60;68.40;;;;;;5033552;28;20464;-62
2023/09/04 10:08:42;;;;;;;2.20;2.00;;;23.70;67.50;;;;;;5034533;28;20037;-63
2023/09/04 10:11:11;;;;;;;2.13;1.95;;;23.80;67.80;;;;;;5031020;28;20383;-63
2023/09/04 10:13:54;;;;;;;2.30;2.10;;;23.90;67.20;;;;;;5032152;28;20500;-63
2023/09/04 10:16:31;;;;;;;2.25;1.90;;;23.90;66.40;;;;;;5034247;28;20057;-63
2023/09/04 10:18:59;;;;;;;1.90;1.80;;;24.00;65.60;;;;;;5033955;28;20512;-63
2023/09/04 10:21:32;;;;;;;1.77;1.67;;;24.10;66.40;;;;;;5034079;28;20564;-63
2023/09/04 10:24:02;;;;;;;1.70;1.60;;;24.20;65.50;;;;;;5035263;28;20449;-63
2023/09/04 10:27:04;;;;;;;1.45;1.35;;;24.20;64.50;;;;;;5034331;28;20040;-63
2023/09/04 10:29:34;;;;;;;2.00;1.90;;;24.30;64.10;;;;;;5033670;28;20113;-63
2023/09/04 10:32:01;;;;;;;2.03;1.92;;;24.40;65.10;;;;;;5032867;28;20051;-64
2023/09/04 10:34:27;;;;;;;1.80;1.70;;;24.50;65.30;;;;;;5033840;28;20151;-63
2023/09/04 10:36:53;;;;;;;2.08;1.85;;;24.50;64.60;;;;;;5037643;28;20447;-63
2023/09/04 10:39:19;;;;;;;2.70;1.70;;;24.60;64.50;;;;;;5036888;28;20033;-63
2023/09/04 10:41:46;;;;;;;1.80;1.70;;;24.70;64.30;;;;;;5038770;28;20095;-63
2023/09/04 10:44:20;;;;;;;3.90;1.77;;;24.80;64.00;;;;;;5037962;28;20052;-63
2023/09/04 10:46:55;;;;;;;1.98;1.88;;;24.80;63.70;;;;;;5038047;28;20033;-63
2023/09/04 10:49:31;;;;;;;2.00;1.83;;;24.90;62.60;;;;;;5036261;28;20026;-63
2023/09/04 10:51:57;;;;;;;2.25;1.50;;;25.00;63.10;;;;;;5038362;28;20045;-63
2023/09/04 10:54:26;;;;;;;1.80;1.70;;;25.00;63.40;;;;;;5037068;28;20040;-63
2023/09/04 10:56:58;;;;;;;1.67;1.58;;;25.10;62.20;;;;;;5034074;28;20082;-63
2023/09/04 10:59:25;;;;;;;2.38;1.73;;;25.10;61.00;;;;;;5037320;28;20125;-63
2023/09/04 11:01:51;;;;;;;1.58;1.48;;;25.20;62.20;;;;;;5036358;28;20496;-62
2023/09/04 11:04:35;;;;;;;1.70;1.60;;;25.30;62.10;;;;;;5036593;28;20037;-63
2023/09/04 11:07:19;;;;;;;2.55;1.52;;;25.30;60.90;;;;;;5039077;28;20436;-62
2023/09/04 11:09:44;;;;;;;2.30;1.35;;;25.40;59.10;;;;;;5036968;28;20043;-63
2023/09/04 11:12:11;;;;;;;1.67;1.55;;;25.50;60.50;;;;;;5034227;28;20029;-63
2023/09/04 11:14:48;;;;;;;1.50;1.40;;;25.50;59.70;;;;;;5032992;28;20404;-63
2023/09/04 11:17:17;;;;;;;2.28;1.50;;;25.60;59.00;;;;;;5036976;28;20033;-63
2023/09/04 11:19:43;;;;;;;1.40;1.30;;;25.60;58.50;;;;;;5038323;28;20040;-63
2023/09/04 11:22:18;;;;;;;2.55;1.38;;;25.70;58.20;;;;;;5034755;28;20123;-63
2023/09/04 11:24:45;;;;;;;2.38;1.50;;;25.70;56.90;;;;;;5035244;28;20044;-63
2023/09/04 11:27:10;;;;;;;1.50;1.40;;;25.80;58.00;;;;;;5034927;28;20136;-63
2023/09/04 11:29:36;;;;;;;1.60;1.50;;;25.80;57.70;;;;;;5037177;28;20053;-62
2023/09/04 11:32:02;;;;;;;1.60;1.50;;;25.90;58.10;;;;;;5036671;28;20029;-63
2023/09/04 11:34:28;;;;;;;1.80;1.70;;;25.90;57.80;;;;;;5035687;28;20029;-62
2023/09/04 11:36:53;;;;;;;2.00;1.70;;;26.00;57.60;;;;;;5036505;28;20037;-63
2023/09/04 11:39:19;;;;;;;1.67;1.58;;;26.00;57.60;;;;;;5037399;28;20037;-63
2023/09/04 11:41:46;;;;;;;1.58;1.48;;;26.10;57.50;;;;;;5033665;28;20036;-62
2023/09/04 11:44:12;;;;;;;1.60;1.50;;;26.10;57.30;;;;;;5037009;28;20033;-63
2023/09/04 11:46:39;;;;;;;1.48;1.38;;;26.10;56.80;;;;;;5036782;28;20034;-62
2023/09/04 11:49:06;;;;;;;1.50;1.40;;;26.20;57.00;;;;;;5037050;28;20037;-62
2023/09/04 11:51:32;;;;;;;1.70;1.48;;;26.20;56.50;;;;;;5035187;28;20045;-62
2023/09/04 11:53:58;;;;;;;1.50;1.40;;;26.30;55.60;;;;;;5035980;28;20416;-62
2023/09/04 11:56:24;;;;;;;1.88;1.45;;;26.30;55.70;;;;;;5036265;28;20029;-61
2023/09/04 11:58:49;;;;;;;1.67;1.30;;;26.40;55.70;;;;;;5034314;28;20061;-61
2023/09/04 12:01:15;;;;;;;1.58;1.48;;;26.40;55.40;;;;;;5036179;28;20060;-62
2023/09/04 12:03:41;;;;;;;1.60;1.50;;;26.40;55.10;;;;;;5036586;28;20072;-62
2023/09/04 12:06:10;;;;;;;1.35;1.20;;;26.50;55.00;;;;;;5035542;28;20505;-63
2023/09/04 12:08:35;;;;;;;3.80;1.50;;;26.50;54.80;;;;;;5035535;28;20128;-62
2023/09/04 12:11:01;;;;;;;2.13;1.52;;;26.50;54.40;;;;;;5033558;28;20124;-63
2023/09/04 12:13:27;;;;;;;1.58;1.48;;;26.50;54.00;;;;;;5035705;28;20052;-63
2023/09/04 12:16:05;;;;;;;2.28;1.70;;;26.60;54.00;;;;;;5036257;28;20025;-62
2023/09/04 12:18:34;;;;;;;1.63;1.52;;;26.60;53.00;;;;;;5038100;28;20480;-62
2023/09/04 12:21:00;;;;;;;1.55;1.45;;;26.60;53.80;;;;;;5037385;28;20037;-62
2023/09/04 12:23:45;;;;;;;1.60;1.50;;;26.60;54.00;;;;;;5038432;28;20037;-62
2023/09/04 12:26:13;;;;;;;4.20;1.80;;;26.70;54.20;;;;;;5036874;28;20128;-62
2023/09/04 12:28:39;;;;;;;1.70;1.60;;;26.70;54.20;;;;;;5033040;28;20069;-62
2023/09/04 12:31:07;;;;;;;3.42;1.42;;;26.70;54.20;;;;;;5037018;28;20090;-63
2023/09/04 12:33:38;;;;;;;1.88;1.65;;;26.70;53.80;;;;;;5038503;28;20029;-62
2023/09/04 12:36:09;;;;;;;2.10;1.70;;;26.80;54.00;;;;;;5037111;28;20394;-63
2023/09/04 12:38:36;;;;;;;1.80;1.70;;;26.80;53.30;;;;;;5037814;28;20517;-63
2023/09/04 12:41:02;;;;;;;1.75;1.65;;;26.80;53.00;;;;;;5037472;28;20041;-62
2023/09/04 12:43:28;;;;;;;2.03;1.45;;;26.80;53.00;;;;;;5035038;28;20536;-63
2023/09/04 12:45:53;;;;;;;2.10;1.60;;;26.80;52.90;;;;;;5037339;28;20037;-62
2023/09/04 12:48:19;;;;;;;1.90;1.70;;;26.80;53.00;;;;;;5036920;28;20037;-62